Time;durP1;ratioP1;P1;durP2;ratioP2;P2;SDS_P1;SDS_P2;PMS_P1;PMS_P2;Temp;Humidity;BMP_temperature;BMP_pressure;BME280_temperature;BME280_humidity;BME280_pressure;Samples;Min_cycle;Max_cycle;Signal;HPM_P1;HPM_P2
2022/07/30 00:00:22;;;;;;;;;;;;;;;;;;4988300;28;19921;-55
2022/07/30 00:02:49;;;;;;;;;;;;;;;;;;4987856;28;19917;-55
2022/07/30 00:05:16;;;;;;;;;;;;;;;;;;5002292;28;19909;-55
2022/07/30 00:07:43;;;;;;;;;;;;;;;;;;5007234;28;19913;-55
2022/07/30 00:10:10;;;;;;;;;;;;;;;;;;5007875;28;19917;-55
2022/07/30 00:12:36;;;;;;;;;;;;;;;;;;5007349;28;19909;-54
2022/07/30 00:15:02;;;;;;;;;;;;;;;;;;5007399;28;19915;-54
2022/07/30 00:17:28;;;;;;;;;;;;;;;;;;5007797;28;19922;-54
2022/07/30 00:19:53;;;;;;;;;;;;;;;;;;5008148;28;19917;-54
2022/07/30 00:22:20;;;;;;;;;;;;;;;;;;5006491;28;19964;-55
2022/07/30 00:24:46;;;;;;;;;;;;;;;;;;5007274;28;19992;-55
2022/07/30 00:27:13;;;;;;;;;;;;;;;;;;5006488;28;20004;-55
2022/07/30 00:29:39;;;;;;;;;;;;;;;;;;5007113;28;19967;-57
2022/07/30 00:32:06;;;;;;;;;;;;;;;;;;5007134;28;19914;-53
2022/07/30 00:34:33;;;;;;;;;;;;;;;;;;5006632;28;19913;-55
2022/07/30 00:37:00;;;;;;;;;;;;;;;;;;5007250;28;20341;-54
2022/07/30 00:39:28;;;;;;;;;;;;;;;;;;5007723;28;19909;-54
2022/07/30 00:41:55;;;;;;;;;;;;;;;;;;5007866;28;19913;-55
2022/07/30 00:44:21;;;;;;;;;;;;;;;;;;5007183;28;19984;-54
2022/07/30 00:46:47;;;;;;;;;;;;;;;;;;5006825;28;19909;-54
2022/07/30 00:49:13;;;;;;;;;;;;;;;;;;5005931;28;20493;-54
2022/07/30 00:51:39;;;;;;;;;;;;;;;;;;5006885;28;19935;-53
2022/07/30 00:54:05;;;;;;;;;;;;;;;;;;5006941;28;19913;-54
2022/07/30 00:56:31;;;;;;;;;;;;;;;;;;5006657;28;19917;-56
2022/07/30 00:58:57;;;;;;;;;;;;;;;;;;5007661;28;19936;-56
2022/07/30 01:01:24;;;;;;;;;;;;;;;;;;5006912;28;19913;-53
2022/07/30 01:03:50;;;;;;;;;;;;;;;;;;5006609;28;19909;-55
2022/07/30 01:06:16;;;;;;;;;;;;;;;;;;5006735;28;19917;-55
2022/07/30 01:08:42;;;;;;;;;;;;;;;;;;5006624;28;19921;-55
2022/07/30 01:11:09;;;;;;;;;;;;;;;;;;5006470;28;19917;-55
2022/07/30 01:13:36;;;;;;;;;;;;;;;;;;5004954;28;20349;-55
2022/07/30 01:16:02;;;;;;;;;;;;;;;;;;5006571;28;20004;-55
2022/07/30 01:19:47;;;;;;;;;;;;;;;;;;5006307;28;19913;-56
2022/07/30 01:21:14;;;;;;;;;;;;;;;;;;5006463;28;19913;-54
2022/07/30 01:23:40;;;;;;;;;;;;;;;;;;5006102;28;20445;-54
2022/07/30 01:26:06;;;;;;;;;;;;;;;;;;5005184;28;20318;-56
2022/07/30 01:28:32;;;;;;;;;;;;;;;;;;5005956;28;19917;-55
2022/07/30 01:30:59;;;;;;;;;;;;;;;;;;5006649;28;19913;-55
2022/07/30 01:33:25;;;;;;;;;;;;;;;;;;5006432;28;19914;-54
2022/07/30 01:35:51;;;;;;;;;;;;;;;;;;5006212;28;19968;-55
2022/07/30 01:38:20;;;;;;;;;;;;;;;;;;5006081;28;19955;-54
2022/07/30 01:40:46;;;;;;;;;;;;;;;;;;5005932;28;20456;-54
2022/07/30 01:43:12;;;;;;;;;;;;;;;;;;5006077;28;19909;-55
2022/07/30 01:45:38;;;;;;;;;;;;;;;;;;5003919;28;19914;-55
2022/07/30 01:48:05;;;;;;;;;;;;;;;;;;5006416;28;19913;-55
2022/07/30 01:50:32;;;;;;;;;;;;;;;;;;5004064;28;19913;-56
2022/07/30 01:52:59;;;;;;;;;;;;;;;;;;5005671;28;20228;-55
2022/07/30 01:55:25;;;;;;;;;;;;;;;;;;5005721;28;19909;-55
2022/07/30 01:57:52;;;;;;;;;;;;;;;;;;5005760;28;19910;-56
2022/07/30 02:00:17;;;;;;;;;;;;;;;;;;5005760;28;19921;-55
2022/07/30 02:02:43;;;;;;;;;;;;;;;;;;5005016;28;20408;-55
2022/07/30 02:05:09;;;;;;;;;;;;;;;;;;5006261;28;19913;-54
2022/07/30 02:07:35;;;;;;;;;;;;;;;;;;5005274;28;19910;-55
2022/07/30 02:10:02;;;;;;;;;;;;;;;;;;5005586;28;19914;-55
2022/07/30 02:12:28;;;;;;;;;;;;;;;;;;5005165;28;20450;-54
2022/07/30 02:14:54;;;;;;;;;;;;;;;;;;5005709;28;20091;-54
2022/07/30 02:17:20;;;;;;;;;;;;;;;;;;5005829;28;19948;-55
2022/07/30 02:19:46;;;;;;;;;;;;;;;;;;5005245;28;19910;-54
2022/07/30 02:22:12;;;;;;;;;;;;;;;;;;5005541;28;19921;-55
2022/07/30 02:24:38;;;;;;;;;;;;;;;;;;5005862;28;19913;-55
2022/07/30 02:27:06;;;;;;;;;;;;;;;;;;5005340;28;19920;-55
2022/07/30 02:29:33;;;;;;;;;;;;;;;;;;5005056;28;19921;-55
2022/07/30 02:31:58;;;;;;;;;;;;;;;;;;5005362;28;20058;-55
2022/07/30 02:34:26;;;;;;;;;;;;;;;;;;5005356;28;20416;-54
2022/07/30 02:36:52;;;;;;;;;;;;;;;;;;5005243;28;20035;-54
2022/07/30 02:39:19;;;;;;;;;;;;;;;;;;5005358;28;20000;-55
2022/07/30 02:41:44;;;;;;;;;;;;;;;;;;5004828;28;20000;-54
2022/07/30 02:44:11;;;;;;;;;;;;;;;;;;5005914;28;20059;-54
2022/07/30 02:46:37;;;;;;;;;;;;;;;;;;5005554;28;19913;-54
2022/07/30 02:49:03;;;;;;;;;;;;;;;;;;5005488;28;19916;-55
2022/07/30 02:51:30;;;;;;;;;;;;;;;;;;5008810;28;19992;-55
2022/07/30 02:53:56;;;;;;;;;;;;;;;;;;5009065;28;19925;-52
2022/07/30 02:56:22;;;;;;;;;;;;;;;;;;5008883;28;19909;-55
2022/07/30 02:58:48;;;;;;;;;;;;;;;;;;5009407;28;20422;-55
2022/07/30 03:01:14;;;;;;;;;;;;;;;;;;5008930;28;19913;-55
2022/07/30 03:03:40;;;;;;;;;;;;;;;;;;5009762;28;20344;-55
2022/07/30 03:06:05;;;;;;;;;;;;;;;;;;5009009;28;19913;-55
2022/07/30 03:08:31;;;;;;;;;;;;;;;;;;5008681;28;19921;-54
2022/07/30 03:10:57;;;;;;;;;;;;;;;;;;5008585;28;20402;-53
2022/07/30 03:13:23;;;;;;;;;;;;;;;;;;5008841;28;20449;-55
2022/07/30 03:15:49;;;;;;;;;;;;;;;;;;5008519;28;19914;-54
2022/07/30 03:18:16;;;;;;;;;;;;;;;;;;5009006;28;20020;-55
2022/07/30 03:20:42;;;;;;;;;;;;;;;;;;5008255;28;19945;-55
2022/07/30 03:23:08;;;;;;;;;;;;;;;;;;5009234;28;19909;-54
2022/07/30 03:25:35;;;;;;;;;;;;;;;;;;5008317;28;19917;-54
2022/07/30 03:28:02;;;;;;;;;;;;;;;;;;5008446;28;19922;-54
2022/07/30 03:30:29;;;;;;;;;;;;;;;;;;5008373;28;19909;-55
2022/07/30 03:32:55;;;;;;;;;;;;;;;;;;5008179;28;19939;-53
2022/07/30 03:35:21;;;;;;;;;;;;;;;;;;5008537;28;20402;-54
2022/07/30 03:37:47;;;;;;;;;;;;;;;;;;5008408;28;19975;-55
2022/07/30 03:40:13;;;;;;;;;;;;;;;;;;5008135;28;20405;-55
2022/07/30 03:42:39;;;;;;;;;;;;;;;;;;5008717;28;19913;-55
2022/07/30 03:45:05;;;;;;;;;;;;;;;;;;5008079;28;20350;-52
2022/07/30 03:47:31;;;;;;;;;;;;;;;;;;5008370;28;19915;-55
2022/07/30 03:49:57;;;;;;;;;;;;;;;;;;5008058;28;19977;-54
2022/07/30 03:52:23;;;;;;;;;;;;;;;;;;4988507;28;19916;-53
2022/07/30 03:54:49;;;;;;;;;;;;;;;;;;4988382;28;20394;-55
2022/07/30 03:57:15;;;;;;;;;;;;;;;;;;4988679;28;20182;-54
2022/07/30 03:59:41;;;;;;;;;;;;;;;;;;4988987;28;19910;-55
2022/07/30 04:02:08;;;;;;;;;;;;;;;;;;4987434;28;19914;-54
2022/07/30 04:04:34;;;;;;;;;;;;;;;;;;4988161;28;20421;-54
2022/07/30 04:07:00;;;;;;;;;;;;;;;;;;4988280;28;19913;-54
2022/07/30 04:09:26;;;;;;;;;;;;;;;;;;4987917;28;19906;-53
2022/07/30 04:11:52;;;;;;;;;;;;;;;;;;4988199;28;19952;-55
2022/07/30 04:14:18;;;;;;;;;;;;;;;;;;4988166;28;20588;-54
2022/07/30 04:16:44;;;;;;;;;;;;;;;;;;4987701;28;20314;-55
2022/07/30 04:19:10;;;;;;;;;;;;;;;;;;4988569;28;19913;-54
2022/07/30 04:21:36;;;;;;;;;;;;;;;;;;4987882;28;19980;-54
2022/07/30 04:24:02;;;;;;;;;;;;;;;;;;4987863;28;20374;-54
2022/07/30 04:26:27;;;;;;;;;;;;;;;;;;4987568;28;19917;-54
2022/07/30 04:28:53;;;;;;;;;;;;;;;;;;4988174;28;19967;-54
2022/07/30 04:31:20;;;;;;;;;;;;;;;;;;4987594;28;20421;-53
2022/07/30 04:33:46;;;;;;;;;;;;;;;;;;4987525;28;19921;-52
2022/07/30 04:36:12;;;;;;;;;;;;;;;;;;4988003;28;20431;-55
2022/07/30 04:38:38;;;;;;;;;;;;;;;;;;4988025;28;20353;-52
2022/07/30 04:41:04;;;;;;;;;;;;;;;;;;4987752;28;19909;-54
2022/07/30 04:43:30;;;;;;;;;;;;;;;;;;4985977;28;19913;-54
2022/07/30 04:45:57;;;;;;;;;;;;;;;;;;4987559;28;19921;-53
2022/07/30 04:48:25;;;;;;;;;;;;;;;;;;4987212;28;20426;-53
2022/07/30 04:50:51;;;;;;;;;;;;;;;;;;4987365;28;20415;-53
2022/07/30 04:53:18;;;;;;;;;;;;;;;;;;4987259;28;20016;-54
2022/07/30 04:55:45;;;;;;;;;;;;;;;;;;4987106;28;19910;-53
2022/07/30 04:58:11;;;;;;;;;;;;;;;;;;4988097;28;19914;-54
2022/07/30 05:00:37;;;;;;;;;;;;;;;;;;4987531;28;19921;-54
2022/07/30 05:03:03;;;;;;;;;;;;;;;;;;4987152;28;19910;-54
2022/07/30 05:05:31;;;;;;;;;;;;;;;;;;4987007;28;19914;-54
2022/07/30 05:07:57;;;;;;;;;;;;;;;;;;4987180;28;19910;-54
2022/07/30 05:10:23;;;;;;;;;;;;;;;;;;4987020;28;20346;-55
2022/07/30 05:12:49;;;;;;;;;;;;;;;;;;4986692;28;20030;-54
2022/07/30 05:15:15;;;;;;;;;;;;;;;;;;4987337;28;19948;-53
2022/07/30 05:17:42;;;;;;;;;;;;;;;;;;4987170;28;19920;-53
2022/07/30 05:20:09;;;;;;;;;;;;;;;;;;4987586;28;19925;-51
2022/07/30 05:22:35;;;;;;;;;;;;;;;;;;4986906;28;19910;-54
2022/07/30 05:25:01;;;;;;;;;;;;;;;;;;4986906;28;19921;-54
2022/07/30 05:27:27;;;;;;;;;;;;;;;;;;4986282;28;19976;-53
2022/07/30 05:29:54;;;;;;;;;;;;;;;;;;4986394;28;19914;-55
2022/07/30 05:32:20;;;;;;;;;;;;;;;;;;4986320;28;20000;-54
2022/07/30 05:34:46;;;;;;;;;;;;;;;;;;4986428;28;20020;-54
2022/07/30 05:37:12;;;;;;;;;;;;;;;;;;4993273;28;19918;-55
2022/07/30 05:39:38;;;;;;;;;;;;;;;;;;4993655;28;19913;-56
2022/07/30 05:42:04;;;;;;;;;;;;;;;;;;4988612;28;19953;-55
2022/07/30 05:44:30;;;;;;;;;;;;;;;;;;5006339;28;19918;-55
2022/07/30 05:46:56;;;;;;;;;;;;;;;;;;5007386;28;19913;-53
2022/07/30 05:49:22;;;;;;;;;;;;;;;;;;5006719;28;20057;-55
2022/07/30 05:51:48;;;;;;;;;;;;;;;;;;5007233;28;19909;-55
2022/07/30 05:54:14;;;;;;;;;;;;;;;;;;5007194;28;20378;-55
2022/07/30 05:56:40;;;;;;;;;;;;;;;;;;5007316;28;19913;-55
2022/07/30 05:59:06;;;;;;;;;;;;;;;;;;5007169;28;19921;-55
2022/07/30 06:01:32;;;;;;;;;;;;;;;;;;5006933;28;19924;-54
2022/07/30 06:03:58;;;;;;;;;;;;;;;;;;5006805;28;19960;-55
2022/07/30 06:06:24;;;;;;;;;;;;;;;;;;5006706;28;19913;-54
2022/07/30 06:08:51;;;;;;;;;;;;;;;;;;5006831;28;20306;-54
2022/07/30 06:11:17;;;;;;;;;;;;;;;;;;5006994;28;19920;-55
2022/07/30 06:13:43;;;;;;;;;;;;;;;;;;5006254;28;19917;-55
2022/07/30 06:16:09;;;;;;;;;;;;;;;;;;5007720;28;19975;-55
2022/07/30 06:18:35;;;;;;;;;;;;;;;;;;5006256;28;20437;-54
2022/07/30 06:21:01;;;;;;;;;;;;;;;;;;4996282;28;19925;-55
2022/07/30 06:23:27;;;;;;;;;;;;;;;;;;4994261;28;19921;-53
2022/07/30 06:25:53;;;;;;;;;;;;;;;;;;4994338;28;20013;-55
2022/07/30 06:28:19;;;;;;;;;;;;;;;;;;4986622;28;19924;-54
2022/07/30 06:30:46;;;;;;;;;;;;;;;;;;4993410;28;19919;-55
2022/07/30 06:33:12;;;;;;;;;;;;;;;;;;5010590;28;19928;-55
2022/07/30 06:35:38;;;;;;;;;;;;;;;;;;5007187;28;20425;-55
2022/07/30 06:38:04;;;;;;;;;;;;;;;;;;4998381;28;19953;-55
2022/07/30 06:40:30;;;;;;;;;;;;;;;;;;4990299;28;19980;-56
2022/07/30 06:42:56;;;;;;;;;;;;;;;;;;4986170;28;19925;-52
2022/07/30 06:45:22;;;;;;;;;;;;;;;;;;4989858;28;19941;-55
2022/07/30 06:47:48;;;;;;;;;;;;;;;;;;4998460;28;19941;-55
2022/07/30 06:50:14;;;;;;;;;;;;;;;;;;4994579;28;19942;-55
2022/07/30 06:52:40;;;;;;;;;;;;;;;;;;4994397;28;19918;-55
2022/07/30 06:55:06;;;;;;;;;;;;;;;;;;4993379;28;19917;-54
2022/07/30 06:57:32;;;;;;;;;;;;;;;;;;5001037;28;20329;-54
2022/07/30 06:59:58;;;;;;;;;;;;;;;;;;4986026;28;20028;-55
2022/07/30 07:02:24;;;;;;;;;;;;;;;;;;4986226;28;20016;-55
2022/07/30 07:04:51;;;;;;;;;;;;;;;;;;4988890;28;19922;-56
2022/07/30 07:07:17;;;;;;;;;;;;;;;;;;5006229;28;20446;-55
2022/07/30 07:09:44;;;;;;;;;;;;;;;;;;5002717;28;20047;-54
2022/07/30 07:12:11;;;;;;;;;;;;;;;;;;4993532;28;19918;-55
2022/07/30 07:14:37;;;;;;;;;;;;;;;;;;4999941;28;19922;-55
2022/07/30 07:17:04;;;;;;;;;;;;;;;;;;4995265;28;20334;-55
2022/07/30 07:19:31;;;;;;;;;;;;;;;;;;4990089;28;19926;-55
2022/07/30 07:21:57;;;;;;;;;;;;;;;;;;4993300;28;19921;-52
2022/07/30 07:24:23;;;;;;;;;;;;;;;;;;4996985;28;19960;-54
2022/07/30 07:26:49;;;;;;;;;;;;;;;;;;4993490;28;19957;-55
2022/07/30 07:29:15;;;;;;;;;;;;;;;;;;5000201;28;19925;-56
2022/07/30 07:31:41;;;;;;;;;;;;;;;;;;5005650;28;19960;-55
2022/07/30 07:34:07;;;;;;;;;;;;;;;;;;5007845;28;20472;-55
2022/07/30 07:36:35;;;;;;;;;;;;;;;;;;5009663;28;19910;-55
2022/07/30 07:39:01;;;;;;;;;;;;;;;;;;5010572;28;19961;-55
2022/07/30 07:41:27;;;;;;;;;;;;;;;;;;5010132;28;19914;-55
2022/07/30 07:43:53;;;;;;;;;;;;;;;;;;5008924;28;19924;-55
2022/07/30 07:46:18;;;;;;;;;;;;;;;;;;4998896;28;19913;-55
2022/07/30 07:48:44;;;;;;;;;;;;;;;;;;5004435;28;20009;-56
2022/07/30 07:51:10;;;;;;;;;;;;;;;;;;5010940;28;19957;-56
2022/07/30 07:53:36;;;;;;;;;;;;;;;;;;5010001;28;19918;-56
2022/07/30 07:56:02;;;;;;;;;;;;;;;;;;5001908;28;19923;-56
2022/07/30 07:58:28;;;;;;;;;;;;;;;;;;5009867;28;19996;-56
2022/07/30 08:00:54;;;;;;;;;;;;;;;;;;5009355;28;20315;-56
2022/07/30 08:03:20;;;;;;;;;;;;;;;;;;5010216;28;19941;-56
2022/07/30 08:05:46;;;;;;;;;;;;;;;;;;5010119;28;20367;-56
2022/07/30 08:08:12;;;;;;;;;;;;;;;;;;5010142;28;20000;-55
2022/07/30 08:10:38;;;;;;;;;;;;;;;;;;5010251;28;19916;-55
2022/07/30 08:13:04;;;;;;;;;;;;;;;;;;5009285;28;19909;-55
2022/07/30 08:15:30;;;;;;;;;;;;;;;;;;5009450;28;19917;-56
2022/07/30 08:17:56;;;;;;;;;;;;;;;;;;5009425;28;19952;-55
2022/07/30 08:20:23;;;;;;;;;;;;;;;;;;5009398;28;19914;-56
2022/07/30 08:22:49;;;;;;;;;;;;;;;;;;5006773;28;19918;-56
2022/07/30 08:25:15;;;;;;;;;;;;;;;;;;4990193;28;19921;-55
2022/07/30 08:27:41;;;;;;;;;;;;;;;;;;4990235;28;19918;-55
2022/07/30 08:30:07;;;;;;;;;;;;;;;;;;4990688;28;19925;-56
2022/07/30 08:32:33;;;;;;;;;;;;;;;;;;4989919;28;19914;-56
2022/07/30 08:34:59;;;;;;;;;;;;;;;;;;4990114;28;19913;-57
2022/07/30 08:37:25;;;;;;;;;;;;;;;;;;4989955;28;20029;-56
2022/07/30 08:39:51;;;;;;;;;;;;;;;;;;4998207;28;19918;-56
2022/07/30 08:42:17;;;;;;;;;;;;;;;;;;5009268;28;19919;-55
2022/07/30 08:44:43;;;;;;;;;;;;;;;;;;5009181;28;19917;-56
2022/07/30 08:47:09;;;;;;;;;;;;;;;;;;5009278;28;19955;-56
2022/07/30 08:49:35;;;;;;;;;;;;;;;;;;5009097;28;20013;-55
2022/07/30 08:52:01;;;;;;;;;;;;;;;;;;5009250;28;19930;-56
2022/07/30 08:54:27;;;;;;;;;;;;;;;;;;5008954;28;19913;-57
2022/07/30 08:56:52;;;;;;;;;;;;;;;;;;4991467;28;20310;-56
2022/07/30 08:59:19;;;;;;;;;;;;;;;;;;4989777;28;19906;-55
2022/07/30 09:01:44;;;;;;;;;;;;;;;;;;4988991;28;19914;-56
2022/07/30 09:04:10;;;;;;;;;;;;;;;;;;4990268;28;20417;-57
2022/07/30 09:06:36;;;;;;;;;;;;;;;;;;4989618;28;19910;-56
2022/07/30 09:09:02;;;;;;;;;;;;;;;;;;4989484;28;19914;-56
2022/07/30 09:11:28;;;;;;;;;;;;;;;;;;4989079;28;19916;-55
2022/07/30 09:13:54;;;;;;;;;;;;;;;;;;4989203;28;19965;-57
2022/07/30 09:16:20;;;;;;;;;;;;;;;;;;4989446;28;19917;-56
2022/07/30 09:18:46;;;;;;;;;;;;;;;;;;4989058;28;19914;-55
2022/07/30 09:21:12;;;;;;;;;;;;;;;;;;4989208;28;19918;-55
2022/07/30 09:23:38;;;;;;;;;;;;;;;;;;4998862;28;19914;-55
2022/07/30 09:26:04;;;;;;;;;;;;;;;;;;5008611;28;19998;-55
2022/07/30 09:28:30;;;;;;;;;;;;;;;;;;5008150;28;19917;-55
2022/07/30 09:30:57;;;;;;;;;;;;;;;;;;5008702;28;20317;-54
2022/07/30 09:33:23;;;;;;;;;;;;;;;;;;5008098;28;19921;-55
2022/07/30 09:35:49;;;;;;;;;;;;;;;;;;5006939;28;19968;-56
2022/07/30 09:38:15;;;;;;;;;;;;;;;;;;5000021;28;20005;-56
2022/07/30 09:40:41;;;;;;;;;;;;;;;;;;4989019;28;20438;-56
2022/07/30 09:43:07;;;;;;;;;;;;;;;;;;5000560;28;19913;-55
2022/07/30 09:45:33;;;;;;;;;;;;;;;;;;5027615;28;19913;-55
2022/07/30 09:47:59;;;;;;;;;;;;;;;;;;5016178;28;19933;-54
2022/07/30 09:50:26;;;;;;;;;;;;;;;;;;5007453;28;20004;-55
2022/07/30 09:52:52;;;;;;;;;;;;;;;;;;5001440;28;19943;-55
2022/07/30 09:55:17;;;;;;;;;;;;;;;;;;5003748;28;19928;-55
2022/07/30 09:57:43;;;;;;;;;;;;;;;;;;4991629;28;19917;-55
2022/07/30 10:00:09;;;;;;;;;;;;;;;;;;5009588;28;19909;-54
2022/07/30 10:02:35;;;;;;;;;;;;;;;;;;4998534;28;19975;-54
2022/07/30 10:05:01;;;;;;;;;;;;;;;;;;5024465;28;19917;-53
2022/07/30 10:07:27;;;;;;;;;;;;;;;;;;5006440;28;20394;-54
2022/07/30 10:09:54;;;;;;;;;;;;;;;;;;5006637;28;19956;-54
2022/07/30 10:12:20;;;;;;;;;;;;;;;;;;5005109;28;19909;-54
2022/07/30 10:14:46;;;;;;;;;;;;;;;;;;4987573;28;19924;-56
2022/07/30 10:17:12;;;;;;;;;;;;;;;;;;5001834;28;19921;-53
2022/07/30 10:19:38;;;;;;;;;;;;;;;;;;5007308;28;20421;-55
2022/07/30 10:22:04;;;;;;;;;;;;;;;;;;4992712;28;19914;-55
2022/07/30 10:24:29;;;;;;;;;;;;;;;;;;5001522;28;20465;-55
2022/07/30 10:26:55;;;;;;;;;;;;;;;;;;4999115;28;19910;-55
2022/07/30 10:29:21;;;;;;;;;;;;;;;;;;5004372;28;19917;-54
2022/07/30 10:31:47;;;;;;;;;;;;;;;;;;4998789;28;19945;-56
2022/07/30 10:34:13;;;;;;;;;;;;;;;;;;4988328;28;19924;-53
2022/07/30 10:36:39;;;;;;;;;;;;;;;;;;5006107;28;19913;-53
2022/07/30 10:39:05;;;;;;;;;;;;;;;;;;4998505;28;19914;-54
2022/07/30 10:41:32;;;;;;;;;;;;;;;;;;4993202;28;19925;-55
2022/07/30 10:43:58;;;;;;;;;;;;;;;;;;4987488;28;20499;-55
2022/07/30 10:46:24;;;;;;;;;;;;;;;;;;4999226;28;20008;-55
2022/07/30 10:48:50;;;;;;;;;;;;;;;;;;5007013;28;19909;-55
2022/07/30 10:51:16;;;;;;;;;;;;;;;;;;5007002;28;20398;-54
2022/07/30 10:53:46;;;;;;;;;;;;;;;;;;5006756;28;19921;-55
2022/07/30 10:56:12;;;;;;;;;;;;;;;;;;5007467;28;19913;-55
2022/07/30 10:58:38;;;;;;;;;;;;;;;;;;5006531;28;19917;-55
2022/07/30 11:01:04;;;;;;;;;;;;;;;;;;4989967;28;19918;-55
2022/07/30 11:03:30;;;;;;;;;;;;;;;;;;4988241;28;19914;-56
2022/07/30 11:05:56;;;;;;;;;;;;;;;;;;4991712;28;20052;-55
2022/07/30 11:08:22;;;;;;;;;;;;;;;;;;4996401;28;19917;-55
2022/07/30 11:10:48;;;;;;;;;;;;;;;;;;4989669;28;19913;-56
2022/07/30 11:13:15;;;;;;;;;;;;;;;;;;4992062;28;19968;-55
2022/07/30 11:15:41;;;;;;;;;;;;;;;;;;4992402;28;19929;-56
2022/07/30 11:18:08;;;;;;;;;;;;;;;;;;4991583;28;19918;-55
2022/07/30 11:20:34;;;;;;;;;;;;;;;;;;4995545;28;19945;-55
2022/07/30 11:23:00;;;;;;;;;;;;;;;;;;5001591;28;19968;-55
2022/07/30 11:25:29;;;;;;;;;;;;;;;;;;4991464;28;20375;-55
2022/07/30 11:27:55;;;;;;;;;;;;;;;;;;5005548;28;19924;-55
2022/07/30 11:30:21;;;;;;;;;;;;;;;;;;5002256;28;19913;-55
2022/07/30 11:32:47;;;;;;;;;;;;;;;;;;5005746;28;19996;-55
2022/07/30 11:35:13;;;;;;;;;;;;;;;;;;4992048;28;19922;-55
2022/07/30 11:37:40;;;;;;;;;;;;;;;;;;4992026;28;19922;-55
2022/07/30 11:40:06;;;;;;;;;;;;;;;;;;5003532;28;19941;-55
2022/07/30 11:42:32;;;;;;;;;;;;;;;;;;4993231;28;19917;-55
2022/07/30 11:44:58;;;;;;;;;;;;;;;;;;5004465;28;19914;-56
2022/07/30 11:47:24;;;;;;;;;;;;;;;;;;5010479;28;19909;-54
2022/07/30 11:49:50;;;;;;;;;;;;;;;;;;5007865;28;19917;-56
2022/07/30 11:52:16;;;;;;;;;;;;;;;;;;5000694;28;20056;-55
2022/07/30 11:54:42;;;;;;;;;;;;;;;;;;4999999;28;19927;-55
2022/07/30 11:57:08;;;;;;;;;;;;;;;;;;5000215;28;19913;-56
2022/07/30 11:59:34;;;;;;;;;;;;;;;;;;4990817;28;19917;-56
2022/07/30 12:02:00;;;;;;;;;;;;;;;;;;5004812;28;19999;-56
2022/07/30 12:04:26;;;;;;;;;;;;;;;;;;5010439;28;19917;-56
2022/07/30 12:06:52;;;;;;;;;;;;;;;;;;5010162;28;19918;-56
2022/07/30 12:09:18;;;;;;;;;;;;;;;;;;5004034;28;19953;-56
2022/07/30 12:11:44;;;;;;;;;;;;;;;;;;4990666;28;20402;-56
2022/07/30 12:14:10;;;;;;;;;;;;;;;;;;4991308;28;19914;-57
2022/07/30 12:16:36;;;;;;;;;;;;;;;;;;4990229;28;19913;-56
2022/07/30 12:19:02;;;;;;;;;;;;;;;;;;4990364;28;19921;-56
2022/07/30 12:21:28;;;;;;;;;;;;;;;;;;4989841;28;19914;-56
2022/07/30 12:23:54;;;;;;;;;;;;;;;;;;4989556;28;19941;-56
2022/07/30 12:26:20;;;;;;;;;;;;;;;;;;4990999;28;19914;-56
2022/07/30 12:28:46;;;;;;;;;;;;;;;;;;4990467;28;19925;-54
2022/07/30 12:31:12;;;;;;;;;;;;;;;;;;5009889;28;19921;-56
2022/07/30 12:33:38;;;;;;;;;;;;;;;;;;5010429;28;19917;-54
2022/07/30 12:36:04;;;;;;;;;;;;;;;;;;5010109;28;19914;-54
2022/07/30 12:38:30;;;;;;;;;;;;;;;;;;5003637;28;19914;-54
2022/07/30 12:40:57;;;;;;;;;;;;;;;;;;5009098;28;19910;-54
2022/07/30 12:43:23;;;;;;;;;;;;;;;;;;4995389;28;20286;-54
2022/07/30 12:45:49;;;;;;;;;;;;;;;;;;5009005;28;20012;-54
2022/07/30 12:48:15;;;;;;;;;;;;;;;;;;4994666;28;19914;-53
2022/07/30 12:50:41;;;;;;;;;;;;;;;;;;5010146;28;19909;-53
2022/07/30 12:53:07;;;;;;;;;;;;;;;;;;4998111;28;19918;-55
2022/07/30 12:55:33;;;;;;;;;;;;;;;;;;4988213;28;19964;-54
2022/07/30 12:57:59;;;;;;;;;;;;;;;;;;4997112;28;19918;-55
2022/07/30 13:00:25;;;;;;;;;;;;;;;;;;4987969;28;20374;-54
2022/07/30 13:02:51;;;;;;;;;;;;;;;;;;4989981;28;20402;-54
2022/07/30 13:05:17;;;;;;;;;;;;;;;;;;4990001;28;20391;-54
2022/07/30 13:07:43;;;;;;;;;;;;;;;;;;4989576;28;19921;-55
2022/07/30 13:10:09;;;;;;;;;;;;;;;;;;4993950;28;19914;-53
2022/07/30 13:12:35;;;;;;;;;;;;;;;;;;5006963;28;19917;-54
2022/07/30 13:15:01;;;;;;;;;;;;;;;;;;4999665;28;20413;-54
2022/07/30 13:17:27;;;;;;;;;;;;;;;;;;5000329;28;19913;-55
2022/07/30 13:19:53;;;;;;;;;;;;;;;;;;5003365;28;19925;-55
2022/07/30 13:22:19;;;;;;;;;;;;;;;;;;4989180;28;19909;-54
2022/07/30 13:24:45;;;;;;;;;;;;;;;;;;5001066;28;19925;-54
2022/07/30 13:27:11;;;;;;;;;;;;;;;;;;4998687;28;19944;-54
2022/07/30 13:29:37;;;;;;;;;;;;;;;;;;4990104;28;20338;-55
2022/07/30 13:32:03;;;;;;;;;;;;;;;;;;5004821;28;20599;-54
2022/07/30 13:34:29;;;;;;;;;;;;;;;;;;5005128;28;19963;-54
2022/07/30 13:36:54;;;;;;;;;;;;;;;;;;5007960;28;19913;-54
2022/07/30 13:39:21;;;;;;;;;;;;;;;;;;5007217;28;19913;-53
2022/07/30 13:41:47;;;;;;;;;;;;;;;;;;5007642;28;19971;-54
2022/07/30 13:44:13;;;;;;;;;;;;;;;;;;4991130;28;19918;-55
2022/07/30 13:46:39;;;;;;;;;;;;;;;;;;4989073;28;19916;-54
2022/07/30 13:49:09;;;;;;;;;;;;;;;;;;4988542;28;19906;-57
2022/07/30 13:51:35;;;;;;;;;;;;;;;;;;4990946;28;19957;-56
2022/07/30 13:54:01;;;;;;;;;;;;;;;;;;4990477;28;20426;-57
2022/07/30 13:56:27;;;;;;;;;;;;;;;;;;4995755;28;20004;-57
2022/07/30 13:58:53;;;;;;;;;;;;;;;;;;4998268;28;20021;-56
2022/07/30 14:01:19;;;;;;;;;;;;;;;;;;4995394;28;19945;-56
2022/07/30 14:03:45;;;;;;;;;;;;;;;;;;4992865;28;20739;-57
2022/07/30 14:06:11;;;;;;;;;;;;;;;;;;4995894;28;19921;-57
2022/07/30 14:08:37;;;;;;;;;;;;;;;;;;4989954;28;20426;-57
2022/07/30 14:11:03;;;;;;;;;;;;;;;;;;4996589;28;20159;-57
2022/07/30 14:13:29;;;;;;;;;;;;;;;;;;4986404;28;19996;-57
2022/07/30 14:15:56;;;;;;;;;;;;;;;;;;4991980;28;20032;-57
2022/07/30 14:18:22;;;;;;;;;;;;;;;;;;4987066;28;20083;-57
2022/07/30 14:20:48;;;;;;;;;;;;;;;;;;4986711;28;20000;-56
2022/07/30 14:23:14;;;;;;;;;;;;;;;;;;4997271;28;19918;-57
2022/07/30 14:25:42;;;;;;;;;;;;;;;;;;5004432;28;19913;-57
2022/07/30 14:28:08;;;;;;;;;;;;;;;;;;4994501;28;19925;-57
2022/07/30 14:30:35;;;;;;;;;;;;;;;;;;4995886;28;19918;-57
2022/07/30 14:33:01;;;;;;;;;;;;;;;;;;4994562;28;19960;-56
2022/07/30 14:35:27;;;;;;;;;;;;;;;;;;5000249;28;20406;-57
2022/07/30 14:37:52;;;;;;;;;;;;;;;;;;4987769;28;19914;-57
2022/07/30 14:40:18;;;;;;;;;;;;;;;;;;4996070;28;19921;-57
2022/07/30 14:42:46;;;;;;;;;;;;;;;;;;4997103;28;20023;-56
2022/07/30 14:45:12;;;;;;;;;;;;;;;;;;4996778;28;20000;-57
2022/07/30 14:47:39;;;;;;;;;;;;;;;;;;5007448;28;19917;-56
2022/07/30 14:50:05;;;;;;;;;;;;;;;;;;5001988;28;19914;-57
2022/07/30 14:52:33;;;;;;;;;;;;;;;;;;4999965;28;19914;-57
2022/07/30 14:54:59;;;;;;;;;;;;;;;;;;4990139;28;19914;-57
2022/07/30 14:57:25;;;;;;;;;;;;;;;;;;5004953;28;20421;-56
2022/07/30 14:59:51;;;;;;;;;;;;;;;;;;4996861;28;19913;-57
2022/07/30 15:02:17;;;;;;;;;;;;;;;;;;4994653;28;19932;-56
2022/07/30 15:04:43;;;;;;;;;;;;;;;;;;4999564;28;19914;-57
2022/07/30 15:07:11;;;;;;;;;;;;;;;;;;5008877;28;19947;-57
2022/07/30 15:09:37;;;;;;;;;;;;;;;;;;4995683;28;20009;-57
2022/07/30 15:12:03;;;;;;;;;;;;;;;;;;4999797;28;20036;-57
2022/07/30 15:14:30;;;;;;;;;;;;;;;;;;4997567;28;19973;-57
2022/07/30 15:16:56;;;;;;;;;;;;;;;;;;4999476;28;19937;-57
2022/07/30 15:19:23;;;;;;;;;;;;;;;;;;4992558;28;19989;-57
2022/07/30 15:21:49;;;;;;;;;;;;;;;;;;4994287;28;19921;-58
2022/07/30 15:24:16;;;;;;;;;;;;;;;;;;4997415;28;19914;-57
2022/07/30 15:26:42;;;;;;;;;;;;;;;;;;5003218;28;19913;-58
2022/07/30 15:29:08;;;;;;;;;;;;;;;;;;5004248;28;19928;-57
2022/07/30 15:31:34;;;;;;;;;;;;;;;;;;4998301;28;19925;-56
2022/07/30 15:34:01;;;;;;;;;;;;;;;;;;4997002;28;19948;-58
2022/07/30 15:36:27;;;;;;;;;;;;;;;;;;4995107;28;19914;-56
2022/07/30 15:38:53;;;;;;;;;;;;;;;;;;5000246;28;19929;-57
2022/07/30 15:41:18;;;;;;;;;;;;;;;;;;4999516;28;20001;-56
2022/07/30 15:43:44;;;;;;;;;;;;;;;;;;5000389;28;19917;-57
2022/07/30 15:46:10;;;;;;;;;;;;;;;;;;5004406;28;19921;-56
2022/07/30 15:48:36;;;;;;;;;;;;;;;;;;5002870;28;19918;-56
2022/07/30 15:51:02;;;;;;;;;;;;;;;;;;5005620;28;20294;-56
2022/07/30 15:53:29;;;;;;;;;;;;;;;;;;4993839;28;19921;-56
2022/07/30 15:55:54;;;;;;;;;;;;;;;;;;4995944;28;19924;-56
2022/07/30 15:58:20;;;;;;;;;;;;;;;;;;4995841;28;20009;-56
2022/07/30 16:00:46;;;;;;;;;;;;;;;;;;4988205;28;19941;-56
2022/07/30 16:03:13;;;;;;;;;;;;;;;;;;4996682;28;19945;-56
2022/07/30 16:05:39;;;;;;;;;;;;;;;;;;4989131;28;19933;-57
2022/07/30 16:08:05;;;;;;;;;;;;;;;;;;4996166;28;20406;-56
2022/07/30 16:10:31;;;;;;;;;;;;;;;;;;4996839;28;19917;-57
2022/07/30 16:12:57;;;;;;;;;;;;;;;;;;4987430;28;19920;-57
2022/07/30 16:15:24;;;;;;;;;;;;;;;;;;4987741;28;20176;-56
2022/07/30 16:17:50;;;;;;;;;;;;;;;;;;4988224;28;19945;-57
2022/07/30 16:20:17;;;;;;;;;;;;;;;;;;4988408;28;20413;-56
2022/07/30 16:22:43;;;;;;;;;;;;;;;;;;5007698;28;19913;-56
2022/07/30 16:25:09;;;;;;;;;;;;;;;;;;4999101;28;19918;-56
2022/07/30 16:27:35;;;;;;;;;;;;;;;;;;4989191;28;19924;-56
2022/07/30 16:30:02;;;;;;;;;;;;;;;;;;4988318;28;20390;-57
2022/07/30 16:32:28;;;;;;;;;;;;;;;;;;4990625;28;19925;-56
2022/07/30 16:34:55;;;;;;;;;;;;;;;;;;4990136;28;19967;-56
2022/07/30 16:37:22;;;;;;;;;;;;;;;;;;4988987;28;20302;-56